Caspar, CA (95420)

5:09 AM PDT on August 27, 2016 (GMT -0700)
Caspar South | | Change Station

Elev 75 ft 39.36 °N, 123.82 °W | Updated 52 seconds ago

Overcast
Overcast
57.2 °F
Feels Like 57.2 °F
N
0.0
Wind Variable Wind from SW

Today
High -- | Low -- °F
--% Chance of Precip.
Yesterday
High -- | Low -- °F
Precip. -- in
Pressure 29.96 in
Visibility 10.0 miles
Clouds Overcast 900 ft
Dew Point 53 °F
Humidity 87%
Rainfall 0.00 in
Snow Depth Not available.
6:39 AM 7:52 PM
Waning Crescent, 25% visible
METAR KUKI 271156Z AUTO 16003KT 10SM OVC009 14/12 A2998 RMK AO2 SLP143 T01440117 10161 20139 53002
Pressure 29.96 in
Visibility 10.0 miles
Clouds Overcast 900 ft
Dew Point 53 °F
Humidity 87%
Rainfall 0.00 in
Snow Depth Not available.
6:39 AM 7:52 PM
Waning Crescent, 25% visible
METAR KUKI 271156Z AUTO 16003KT 10SM OVC009 14/12 A2998 RMK AO2 SLP143 T01440117 10161 20139 53002

10-Day Weather Forecast

Almanac

Astronomy

Aug. 27, 2016 Rise Set
Actual Time
Civil Twilight
Nautical Twilight
Astronomical Twilight
Moon
Length of Visible Light
Length of Day
Tomorrow will be .
, % of the Moon is Illuminated

Today's Extremes

State Highs State Lows

Community

WunderPhotos

Upload Photos

1,935,325 photos uploaded!

WunderBlog® & News

Nearby

Air Quality

  Air Quality AQ Index Pollutant
Not available.

Snow Depth

Station Depth Elevation

Earthquake Activity

City Distance Mag. Time & Date
Minimum magnitude displayed is 2.5.

Coastal Water Temperatures

Place Temperature

Stations

Nearby Weather Stations

Station Location Temp. Windchill Dew Point Humidity Wind Precip. Elev Updated Type
                   

Watches & Warnings

There are currently no watches in effect.